Time;durP1;ratioP1;P1;durP2;ratioP2;P2;SDS_P1;SDS_P2;PMS_P1;PMS_P2;Temp;Humidity;BMP_temperature;BMP_pressure;BME280_temperature;BME280_humidity;BME280_pressure;Samples;Min_cycle;Max_cycle;Signal;HPM_P1;HPM_P2
2021/04/09 00:00:32;;;;;;;0.60;0.60;;;3.30;99.90;;;;;;6087621;23;20187;-78
2021/04/09 00:02:59;;;;;;;0.60;0.60;;;3.20;99.90;;;;;;6087471;23;20643;-78
2021/04/09 00:05:26;;;;;;;0.60;0.60;;;3.30;99.90;;;;;;6087316;23;20179;-78
2021/04/09 00:07:52;;;;;;;0.60;0.60;;;3.30;99.90;;;;;;6087432;23;20187;-79
2021/04/09 00:10:21;;;;;;;0.60;0.60;;;3.20;99.90;;;;;;6087129;23;20183;-79
2021/04/09 00:12:47;;;;;;;0.60;0.60;;;3.20;99.90;;;;;;6087456;23;20179;-79
2021/04/09 00:15:13;;;;;;;0.60;0.60;;;3.20;99.90;;;;;;6087276;23;20667;-79
2021/04/09 00:17:41;;;;;;;0.60;0.60;;;3.10;99.90;;;;;;6087225;23;20187;-78
2021/04/09 00:20:12;;;;;;;0.50;0.50;;;3.20;99.90;;;;;;6087097;23;20276;-79
2021/04/09 00:22:38;;;;;;;0.60;0.60;;;3.20;99.90;;;;;;6087776;23;20237;-79
2021/04/09 00:25:06;;;;;;;0.60;0.60;;;3.20;99.90;;;;;;6087992;23;20202;-79
2021/04/09 00:27:32;;;;;;;0.60;0.60;;;3.30;99.90;;;;;;6088601;23;20266;-79
2021/04/09 00:29:59;;;;;;;0.60;0.60;;;3.30;99.90;;;;;;6088534;23;20278;-78
2021/04/09 00:32:25;;;;;;;0.60;0.60;;;3.30;99.90;;;;;;6088440;23;20183;-79
2021/04/09 00:34:51;;;;;;;0.60;0.60;;;3.30;99.90;;;;;;6087617;23;20195;-78
2021/04/09 00:37:18;;;;;;;0.60;0.60;;;3.30;99.90;;;;;;6088317;23;20207;-78
2021/04/09 00:39:45;;;;;;;0.60;0.60;;;3.20;99.90;;;;;;6088833;23;20179;-78
2021/04/09 00:42:17;;;;;;;0.60;0.60;;;3.20;99.90;;;;;;6088239;23;20232;-79
2021/04/09 00:44:44;;;;;;;0.60;0.60;;;3.20;99.90;;;;;;6088487;23;20159;-78
2021/04/09 00:47:10;;;;;;;0.60;0.60;;;3.10;99.90;;;;;;6088446;23;20222;-79
2021/04/09 00:49:37;;;;;;;0.60;0.60;;;3.10;99.90;;;;;;6088273;23;20184;-78
2021/04/09 00:52:05;;;;;;;0.60;0.60;;;3.10;99.90;;;;;;6088489;23;20203;-78
2021/04/09 00:54:33;;;;;;;0.60;0.60;;;3.10;99.90;;;;;;6088700;23;20226;-78
2021/04/09 00:57:01;;;;;;;0.60;0.60;;;3.00;99.90;;;;;;6088791;23;20249;-78
2021/04/09 00:59:29;;;;;;;0.60;0.60;;;3.70;99.90;;;;;;6088735;23;20179;-78
2021/04/09 01:01:55;;;;;;;0.60;0.60;;;3.00;99.90;;;;;;6088247;23;20186;-79
2021/04/09 01:04:21;;;;;;;0.60;0.60;;;2.90;99.90;;;;;;6088272;23;20179;-78
2021/04/09 01:06:48;;;;;;;0.60;0.60;;;2.90;99.90;;;;;;6088622;23;20189;-78
2021/04/09 01:09:14;;;;;;;0.60;0.60;;;2.90;99.90;;;;;;6088491;23;20316;-79
2021/04/09 01:11:41;;;;;;;0.60;0.60;;;2.90;99.90;;;;;;6087775;23;20656;-78
2021/04/09 01:14:09;;;;;;;0.60;0.60;;;2.90;99.90;;;;;;6091058;23;20245;-81
2021/04/09 01:16:43;;;;;;;0.52;0.52;;;2.80;99.90;;;;;;6090916;23;20187;-79
2021/04/09 01:19:30;;;;;;;0.60;0.60;;;2.80;99.90;;;;;;6087717;23;20168;-79
2021/04/09 01:22:01;;;;;;;0.60;0.60;;;2.70;99.90;;;;;;6088020;23;20171;-78
2021/04/09 01:24:54;;;;;;;0.60;0.60;;;2.60;99.90;;;;;;6088314;23;20168;-78
2021/04/09 01:28:04;;;;;;;0.60;0.60;;;2.70;99.90;;;;;;6088108;23;20174;-78
2021/04/09 01:31:06;;;;;;;0.60;0.60;;;2.70;99.90;;;;;;6088397;23;20601;-81
2021/04/09 01:33:36;;;;;;;0.60;0.60;;;2.70;99.90;;;;;;6103227;23;20189;-78
2021/04/09 01:36:08;;;;;;;0.60;0.60;;;2.80;99.90;;;;;;6088103;23;20203;-78
2021/04/09 01:38:38;;;;;;;0.60;0.60;;;2.80;99.90;;;;;;6088025;23;20167;-78
2021/04/09 01:41:07;;;;;;;0.60;0.60;;;2.80;99.90;;;;;;6088087;23;20201;-78
2021/04/09 01:43:36;;;;;;;0.60;0.60;;;2.80;99.90;;;;;;6088138;23;20317;-78
2021/04/09 01:46:04;;;;;;;0.60;0.60;;;2.80;99.90;;;;;;6088382;23;20186;-78
2021/04/09 01:48:32;;;;;;;0.60;0.60;;;2.80;99.90;;;;;;6088698;23;20179;-78
2021/04/09 01:51:01;;;;;;;0.60;0.60;;;2.80;99.90;;;;;;6088426;23;20203;-78
2021/04/09 01:53:30;;;;;;;0.50;0.50;;;2.80;99.90;;;;;;6088206;23;20190;-79
2021/04/09 01:55:58;;;;;;;0.60;0.60;;;2.80;99.90;;;;;;6087550;23;20679;-79
2021/04/09 01:58:27;;;;;;;0.50;0.50;;;2.80;99.90;;;;;;6087789;23;20198;-78
2021/04/09 02:00:55;;;;;;;0.60;0.60;;;2.80;99.90;;;;;;6087967;23;20183;-78
2021/04/09 02:03:22;;;;;;;0.60;0.60;;;2.80;99.90;;;;;;6088068;23;20179;-78
2021/04/09 02:05:49;;;;;;;0.60;0.60;;;2.80;99.90;;;;;;6087869;23;20635;-78
2021/04/09 02:08:18;;;;;;;0.60;0.60;;;2.80;99.90;;;;;;6088509;23;20186;-79
2021/04/09 02:10:46;;;;;;;0.60;0.60;;;2.80;99.90;;;;;;6088620;23;20523;-79
2021/04/09 02:13:12;;;;;;;0.60;0.60;;;2.80;99.90;;;;;;6088417;23;20183;-79
2021/04/09 02:15:39;;;;;;;0.60;0.60;;;2.60;99.90;;;;;;6087532;23;20675;-79
2021/04/09 02:18:05;;;;;;;0.60;0.60;;;2.80;99.90;;;;;;6087908;23;20237;-79
2021/04/09 02:20:32;;;;;;;0.60;0.60;;;3.00;99.90;;;;;;6088202;23;20187;-79
2021/04/09 02:22:59;;;;;;;0.60;0.60;;;2.80;99.90;;;;;;6088367;23;20179;-79
2021/04/09 02:25:26;;;;;;;0.60;0.60;;;2.80;99.90;;;;;;6087857;23;20512;-79
2021/04/09 02:27:53;;;;;;;0.60;0.60;;;2.80;99.90;;;;;;6087472;23;20193;-79
2021/04/09 02:30:21;;;;;;;0.60;0.60;;;2.70;99.90;;;;;;6088061;23;20186;-78
2021/04/09 02:32:48;;;;;;;0.60;0.60;;;2.80;99.90;;;;;;6088206;23;20183;-78
2021/04/09 02:35:15;;;;;;;0.60;0.60;;;2.80;99.90;;;;;;6088378;23;20199;-78
2021/04/09 02:37:43;;;;;;;0.60;0.60;;;2.80;99.90;;;;;;6087580;23;20207;-79
2021/04/09 02:40:13;;;;;;;0.60;0.60;;;2.80;99.90;;;;;;6087624;23;20731;-78
2021/04/09 02:42:44;;;;;;;0.60;0.60;;;2.80;99.90;;;;;;6087813;23;20424;-79
2021/04/09 02:45:12;;;;;;;0.60;0.60;;;2.70;99.90;;;;;;6088240;23;20242;-79
2021/04/09 02:47:39;;;;;;;0.60;0.60;;;2.80;99.90;;;;;;6098149;22;20186;-79
2021/04/09 02:50:11;;;;;;;0.60;0.60;;;2.80;99.90;;;;;;6088386;23;20183;-79
2021/04/09 02:52:43;;;;;;;0.60;0.60;;;2.80;99.90;;;;;;6087609;23;20202;-79
2021/04/09 02:55:14;;;;;;;0.60;0.60;;;2.70;99.90;;;;;;6087644;23;20240;-79
2021/04/09 02:57:42;;;;;;;0.60;0.60;;;2.70;99.90;;;;;;6087850;23;20183;-79
2021/04/09 03:00:10;;;;;;;0.60;0.60;;;2.70;99.90;;;;;;6087528;23;20182;-80
2021/04/09 03:02:39;;;;;;;0.60;0.60;;;2.80;99.90;;;;;;6087411;23;20237;-80
2021/04/09 03:05:07;;;;;;;0.60;0.60;;;2.80;99.90;;;;;;6087675;23;20186;-79
2021/04/09 03:07:37;;;;;;;0.60;0.60;;;2.80;99.90;;;;;;6087888;23;20187;-79
2021/04/09 03:10:06;;;;;;;0.60;0.60;;;2.80;99.90;;;;;;6087791;23;20187;-79
2021/04/09 03:12:32;;;;;;;0.60;0.60;;;2.90;99.90;;;;;;6087959;23;20190;-79
2021/04/09 03:15:02;;;;;;;0.60;0.60;;;2.90;99.90;;;;;;6087763;23;20268;-79
2021/04/09 03:17:31;;;;;;;0.60;0.60;;;2.80;99.90;;;;;;6087715;23;20188;-79
2021/04/09 03:19:57;;;;;;;0.60;0.60;;;2.90;99.90;;;;;;6087297;23;20225;-79
2021/04/09 03:22:24;;;;;;;0.60;0.60;;;2.90;99.90;;;;;;6087520;23;20242;-80
2021/04/09 03:24:51;;;;;;;0.60;0.60;;;2.90;99.90;;;;;;6087350;23;20179;-79
2021/04/09 03:27:17;;;;;;;0.60;0.60;;;2.90;99.90;;;;;;6087745;23;20180;-79
2021/04/09 03:29:44;;;;;;;0.60;0.60;;;2.90;99.90;;;;;;6087971;23;20549;-79
2021/04/09 03:32:11;;;;;;;0.60;0.60;;;2.90;99.90;;;;;;6087309;23;20183;-79
2021/04/09 03:34:38;;;;;;;0.60;0.60;;;2.90;99.90;;;;;;6086999;23;20195;-79
2021/04/09 03:37:04;;;;;;;0.60;0.60;;;2.90;99.90;;;;;;6087298;23;20210;-79
2021/04/09 03:39:30;;;;;;;0.60;0.60;;;3.00;99.90;;;;;;6087919;23;20179;-79
2021/04/09 03:41:57;;;;;;;0.60;0.60;;;2.90;99.90;;;;;;6087310;23;20183;-79
2021/04/09 03:44:23;;;;;;;0.60;0.60;;;2.90;99.90;;;;;;6087181;23;20191;-79
2021/04/09 03:46:49;;;;;;;0.60;0.60;;;2.90;99.90;;;;;;6087618;23;20183;-79
2021/04/09 03:49:16;;;;;;;0.60;0.60;;;2.80;99.90;;;;;;6087780;23;20180;-79
2021/04/09 03:51:42;;;;;;;0.50;0.50;;;2.90;99.90;;;;;;6087705;23;20210;-80
2021/04/09 03:54:08;;;;;;;0.60;0.60;;;2.90;99.90;;;;;;6087479;23;20389;-79
2021/04/09 03:56:35;;;;;;;0.60;0.60;;;3.00;99.90;;;;;;6087008;23;20738;-79
2021/04/09 03:59:01;;;;;;;0.60;0.60;;;3.00;99.90;;;;;;6088889;23;20190;-79
2021/04/09 04:01:28;;;;;;;0.60;0.60;;;3.00;99.90;;;;;;6088069;23;20648;-79
2021/04/09 04:03:54;;;;;;;0.50;0.50;;;3.10;99.90;;;;;;6088382;23;20179;-79
2021/04/09 04:06:22;;;;;;;0.50;0.50;;;3.10;99.90;;;;;;6088128;23;20183;-80
2021/04/09 04:08:48;;;;;;;0.60;0.60;;;3.10;99.90;;;;;;6088781;23;20184;-79
2021/04/09 04:11:14;;;;;;;0.60;0.60;;;3.00;99.90;;;;;;6088835;23;20253;-79
2021/04/09 04:13:40;;;;;;;0.60;0.60;;;3.00;99.90;;;;;;6088350;23;20241;-79
2021/04/09 04:16:07;;;;;;;0.60;0.60;;;2.80;99.90;;;;;;6088321;23;20206;-79
2021/04/09 04:18:33;;;;;;;0.60;0.60;;;2.90;99.90;;;;;;6088427;23;20647;-79
2021/04/09 04:20:59;;;;;;;0.60;0.60;;;2.80;99.90;;;;;;6089193;23;20187;-79
2021/04/09 04:23:26;;;;;;;0.60;0.60;;;2.90;99.90;;;;;;6088418;23;20510;-79
2021/04/09 04:25:53;;;;;;;0.60;0.60;;;3.00;99.90;;;;;;6088356;23;20190;-79
2021/04/09 04:28:19;;;;;;;0.55;0.55;;;2.90;99.90;;;;;;6088513;23;20511;-79
2021/04/09 04:30:50;;;;;;;0.50;0.50;;;2.90;99.90;;;;;;6088887;23;20183;-79
2021/04/09 04:33:17;;;;;;;0.60;0.60;;;2.90;99.90;;;;;;6089148;23;20163;-79
2021/04/09 04:35:43;;;;;;;0.60;0.60;;;2.90;99.90;;;;;;6088784;23;20203;-79
2021/04/09 04:38:10;;;;;;;0.60;0.60;;;2.90;99.90;;;;;;6087957;23;20375;-79
2021/04/09 04:40:37;;;;;;;0.60;0.60;;;2.90;99.90;;;;;;6088602;23;20183;-79
2021/04/09 04:43:03;;;;;;;0.60;0.60;;;2.90;99.90;;;;;;6088304;23;20183;-79
2021/04/09 04:45:30;;;;;;;0.55;0.55;;;2.90;99.90;;;;;;6088803;23;20194;-80
2021/04/09 04:47:56;;;;;;;0.50;0.50;;;2.60;99.90;;;;;;6088542;23;20183;-79
2021/04/09 04:50:23;;;;;;;0.60;0.60;;;3.00;99.90;;;;;;6088384;23;20187;-80
2021/04/09 04:52:49;;;;;;;0.60;0.60;;;3.00;99.90;;;;;;6088394;23;20183;-79
2021/04/09 04:55:16;;;;;;;0.60;0.60;;;3.60;99.90;;;;;;6088783;23;20256;-79
2021/04/09 04:57:43;;;;;;;0.60;0.60;;;3.00;99.90;;;;;;6088555;23;20180;-79
2021/04/09 05:00:10;;;;;;;0.60;0.60;;;3.00;99.90;;;;;;6088253;23;20251;-79
2021/04/09 05:02:36;;;;;;;0.60;0.60;;;3.00;99.90;;;;;;6088219;23;20190;-79
2021/04/09 05:05:04;;;;;;;0.50;0.50;;;3.10;99.90;;;;;;6088489;23;20660;-79
2021/04/09 05:07:30;;;;;;;0.60;0.60;;;3.10;99.90;;;;;;6088579;23;20546;-79
2021/04/09 05:09:57;;;;;;;0.60;0.60;;;3.00;99.90;;;;;;6088116;23;20183;-79
2021/04/09 05:12:23;;;;;;;0.60;0.60;;;3.10;99.90;;;;;;6088085;23;20187;-78
2021/04/09 05:14:51;;;;;;;0.60;0.60;;;3.10;99.90;;;;;;6088283;23;20269;-79
2021/04/09 05:17:17;;;;;;;0.60;0.60;;;3.20;99.90;;;;;;6088694;23;20183;-79
2021/04/09 05:19:43;;;;;;;0.60;0.60;;;3.20;99.90;;;;;;6088618;23;20206;-78
2021/04/09 05:22:09;;;;;;;0.60;0.60;;;3.20;99.90;;;;;;6088345;23;20396;-79
2021/04/09 05:24:36;;;;;;;0.60;0.60;;;3.20;99.90;;;;;;6087811;23;20191;-79
2021/04/09 05:27:02;;;;;;;0.60;0.60;;;3.30;99.90;;;;;;6088597;23;20179;-79
2021/04/09 05:29:28;;;;;;;0.60;0.60;;;3.30;99.90;;;;;;6088579;23;20186;-79
2021/04/09 05:31:55;;;;;;;0.60;0.60;;;3.30;99.90;;;;;;6087780;23;20190;-79
2021/04/09 05:34:22;;;;;;;0.60;0.60;;;3.50;99.90;;;;;;6088095;23;20186;-79
2021/04/09 05:36:48;;;;;;;0.60;0.60;;;3.50;99.90;;;;;;6087900;23;20683;-79
2021/04/09 05:39:14;;;;;;;0.57;0.57;;;3.60;99.90;;;;;;6088892;23;20191;-79
2021/04/09 05:41:40;;;;;;;0.50;0.50;;;3.70;99.90;;;;;;6087988;23;20179;-80
2021/04/09 05:44:07;;;;;;;0.60;0.60;;;3.80;99.90;;;;;;6087958;23;20215;-79
2021/04/09 05:46:33;;;;;;;0.60;0.60;;;3.60;99.90;;;;;;6088470;23;20184;-79
2021/04/09 05:49:00;;;;;;;0.60;0.60;;;3.80;99.90;;;;;;6088817;23;20546;-79
2021/04/09 05:51:26;;;;;;;0.60;0.60;;;3.90;99.90;;;;;;6087891;23;20207;-79
2021/04/09 05:53:53;;;;;;;0.60;0.60;;;4.00;99.90;;;;;;6087919;23;20190;-79
2021/04/09 05:56:19;;;;;;;0.60;0.60;;;4.20;99.90;;;;;;6088115;23;20195;-79
2021/04/09 05:58:45;;;;;;;0.55;0.55;;;4.20;99.90;;;;;;6088604;23;20187;-79
2021/04/09 06:01:11;;;;;;;0.50;0.50;;;4.20;99.90;;;;;;6088083;23;20183;-80
2021/04/09 06:03:38;;;;;;;0.50;0.50;;;4.40;99.90;;;;;;6088079;23;20497;-80
2021/04/09 06:06:06;;;;;;;0.50;0.50;;;4.40;99.90;;;;;;6088094;23;20241;-79
2021/04/09 06:08:32;;;;;;;0.50;0.50;;;4.30;99.90;;;;;;6088368;23;20183;-80
2021/04/09 06:10:58;;;;;;;0.57;0.57;;;4.40;99.90;;;;;;6088511;23;20190;-79
2021/04/09 06:13:24;;;;;;;0.60;0.60;;;4.30;99.90;;;;;;6088038;23;20190;-79
2021/04/09 06:15:50;;;;;;;0.60;0.60;;;4.50;99.90;;;;;;6087577;23;20214;-79
2021/04/09 06:18:17;;;;;;;0.60;0.60;;;4.40;99.90;;;;;;6088669;23;20233;-79
2021/04/09 06:20:43;;;;;;;0.60;0.60;;;4.90;99.90;;;;;;6087413;23;20183;-79
2021/04/09 06:23:10;;;;;;;0.57;0.57;;;4.60;99.90;;;;;;6087557;23;20187;-79
2021/04/09 06:25:36;;;;;;;0.60;0.60;;;4.60;99.90;;;;;;6088001;23;20191;-79
2021/04/09 06:28:03;;;;;;;0.60;0.60;;;4.60;99.90;;;;;;6087929;23;20674;-79
2021/04/09 06:30:29;;;;;;;0.60;0.60;;;4.60;99.90;;;;;;6088544;23;20179;-79
2021/04/09 06:32:55;;;;;;;0.60;0.60;;;4.70;99.90;;;;;;6087777;23;20190;-79
2021/04/09 06:35:22;;;;;;;0.60;0.60;;;4.80;99.90;;;;;;6087775;23;20199;-78
2021/04/09 06:37:48;;;;;;;0.60;0.60;;;4.80;99.90;;;;;;6087907;23;20203;-79
2021/04/09 06:40:15;;;;;;;0.60;0.60;;;4.70;99.90;;;;;;6087721;23;20662;-79
2021/04/09 06:42:42;;;;;;;0.60;0.60;;;4.80;99.90;;;;;;6087824;23;20183;-80
2021/04/09 06:45:09;;;;;;;0.57;0.57;;;4.80;99.90;;;;;;6088055;23;20687;-79
2021/04/09 06:47:36;;;;;;;0.50;0.50;;;4.80;99.90;;;;;;6087647;23;20229;-79
2021/04/09 06:50:03;;;;;;;0.60;0.60;;;4.90;99.90;;;;;;6089186;23;20237;-79
2021/04/09 06:52:29;;;;;;;0.60;0.60;;;4.90;99.90;;;;;;6088874;23;20683;-80
2021/04/09 06:54:59;;;;;;;0.60;0.60;;;4.90;99.90;;;;;;6088311;23;20229;-79
2021/04/09 06:57:28;;;;;;;0.60;0.60;;;4.90;99.90;;;;;;6092342;23;20179;-79
2021/04/09 06:59:58;;;;;;;0.55;0.55;;;5.00;99.90;;;;;;6106463;22;20201;-80
2021/04/09 07:02:32;;;;;;;0.60;0.60;;;5.00;99.90;;;;;;6101598;22;20792;-80
2021/04/09 07:04:59;;;;;;;0.60;0.60;;;6.00;99.90;;;;;;6104852;23;20549;-80
2021/04/09 07:07:26;;;;;;;0.50;0.50;;;7.50;99.90;;;;;;6104015;22;20194;-79
2021/04/09 07:09:52;;;;;;;0.60;0.60;;;4.90;99.90;;;;;;6103355;23;20262;-79
2021/04/09 07:12:22;;;;;;;0.60;0.60;;;5.00;99.90;;;;;;6087648;23;20190;-78
2021/04/09 07:14:50;;;;;;;0.60;0.60;;;5.10;99.90;;;;;;6087627;23;20196;-79
2021/04/09 07:17:24;;;;;;;0.60;0.60;;;5.10;99.90;;;;;;6088266;23;20190;-78
2021/04/09 07:19:51;;;;;;;0.60;0.60;;;5.10;99.90;;;;;;6087389;23;20179;-79
2021/04/09 07:22:28;;;;;;;0.60;0.60;;;5.10;99.90;;;;;;6088006;23;20183;-78
2021/04/09 07:25:06;;;;;;;0.60;0.60;;;5.10;99.90;;;;;;6087591;23;20159;-79
2021/04/09 07:27:32;;;;;;;0.60;0.60;;;5.10;99.90;;;;;;6087495;23;20167;-79
2021/04/09 07:29:59;;;;;;;0.55;0.55;;;5.20;99.90;;;;;;6087813;23;20237;-78
2021/04/09 07:32:32;;;;;;;0.60;0.60;;;5.20;99.90;;;;;;6091552;23;20173;-81
2021/04/09 07:35:10;;;;;;;0.60;0.60;;;5.30;99.90;;;;;;6097186;23;20205;-79
2021/04/09 07:37:48;;;;;;;0.60;0.60;;;5.30;99.90;;;;;;6107434;23;20671;-79
2021/04/09 07:40:16;;;;;;;0.57;0.57;;;5.40;99.90;;;;;;6093719;23;20175;-79
2021/04/09 07:42:43;;;;;;;0.60;0.60;;;5.40;99.90;;;;;;6090021;23;20190;-79
2021/04/09 07:45:12;;;;;;;0.60;0.60;;;5.40;99.90;;;;;;6088268;23;20182;-79
2021/04/09 07:47:40;;;;;;;0.60;0.60;;;5.40;99.90;;;;;;6084567;23;20739;-80
2021/04/09 07:50:09;;;;;;;0.60;0.60;;;5.40;99.90;;;;;;6085657;23;20183;-80
2021/04/09 07:52:46;;;;;;;0.65;0.65;;;5.50;99.90;;;;;;6088673;23;20535;-80
2021/04/09 07:55:19;;;;;;;0.60;0.60;;;5.60;99.90;;;;;;6088665;23;20217;-80
2021/04/09 07:57:46;;;;;;;0.60;0.60;;;5.70;99.90;;;;;;6089343;23;20190;-80
2021/04/09 08:00:24;;;;;;;0.57;0.57;;;5.90;99.90;;;;;;6089422;23;20507;-81
2021/04/09 08:02:52;;;;;;;0.60;0.60;;;5.90;99.90;;;;;;6088101;23;20749;-81
2021/04/09 08:05:21;;;;;;;0.60;0.60;;;6.00;99.90;;;;;;6089357;23;20183;-80
2021/04/09 08:07:47;;;;;;;0.60;0.60;;;6.10;99.90;;;;;;6086943;23;20270;-78
2021/04/09 08:10:15;;;;;;;0.60;0.60;;;6.10;99.90;;;;;;6066666;23;20179;-77
2021/04/09 08:12:42;;;;;;;0.60;0.60;;;6.20;99.90;;;;;;6087880;23;20479;-77
2021/04/09 08:15:18;;;;;;;0.60;0.60;;;6.20;99.90;;;;;;6087706;23;20211;-77
2021/04/09 08:18:05;;;;;;;0.60;0.60;;;6.30;99.90;;;;;;6089137;23;20163;-77
2021/04/09 08:20:36;;;;;;;0.60;0.60;;;6.30;99.90;;;;;;6088890;23;20172;-77
2021/04/09 08:23:05;;;;;;;0.60;0.60;;;6.40;99.90;;;;;;6089587;23;20174;-79
2021/04/09 08:25:32;;;;;;;0.60;0.60;;;6.40;99.90;;;;;;6090003;23;20179;-78
2021/04/09 08:28:00;;;;;;;0.60;0.60;;;6.50;99.90;;;;;;6089782;23;20187;-80
2021/04/09 08:30:29;;;;;;;0.60;0.60;;;6.60;99.90;;;;;;6089740;23;20766;-80
2021/04/09 08:32:57;;;;;;;0.60;0.60;;;6.70;99.90;;;;;;6090639;23;20187;-82
2021/04/09 08:35:23;;;;;;;0.60;0.60;;;6.80;99.90;;;;;;6090115;23;20250;-80
2021/04/09 08:37:51;;;;;;;0.60;0.60;;;6.90;99.90;;;;;;6090711;23;20180;-81
2021/04/09 08:40:18;;;;;;;0.60;0.60;;;7.00;99.90;;;;;;6090422;23;20185;-80
2021/04/09 08:42:45;;;;;;;0.60;0.60;;;7.10;99.90;;;;;;6090356;23;20245;-79
2021/04/09 08:45:13;;;;;;;0.60;0.60;;;7.20;99.90;;;;;;6089698;23;20831;-80
2021/04/09 08:47:41;;;;;;;0.60;0.60;;;7.20;99.90;;;;;;6091502;23;20183;-85
2021/04/09 08:50:10;;;;;;;0.60;0.60;;;7.30;99.90;;;;;;6090781;23;20671;-82
2021/04/09 08:52:41;;;;;;;0.60;0.60;;;7.30;99.90;;;;;;6090523;23;20210;-80
2021/04/09 08:55:09;;;;;;;0.60;0.60;;;7.40;99.90;;;;;;6088693;23;20199;-79
2021/04/09 08:57:38;;;;;;;0.60;0.60;;;7.50;99.90;;;;;;6090014;23;20187;-80
2021/04/09 09:00:14;;;;;;;0.60;0.60;;;7.50;99.90;;;;;;6098390;23;20640;-83
2021/04/09 09:02:48;;;;;;;0.60;0.60;;;7.70;99.90;;;;;;6115802;22;20203;-83
2021/04/09 09:05:15;;;;;;;0.60;0.60;;;7.80;99.90;;;;;;6115440;23;20168;-84
2021/04/09 09:07:59;;;;;;;0.60;0.60;;;8.20;99.90;;;;;;6112511;23;20179;-84
2021/04/09 09:10:46;;;;;;;0.60;0.60;;;8.30;99.90;;;;;;6118271;22;20148;-83
2021/04/09 09:13:43;;;;;;;0.60;0.60;;;8.30;99.90;;;;;;6121718;22;20175;-84
2021/04/09 09:16:19;;;;;;;0.60;0.60;;;8.40;99.90;;;;;;6114716;23;20175;-83
2021/04/09 09:18:56;;;;;;;0.60;0.60;;;8.40;99.90;;;;;;6106575;23;20205;-83
2021/04/09 09:21:41;;;;;;;0.60;0.60;;;8.30;99.90;;;;;;6104459;23;20164;-83
2021/04/09 09:24:20;;;;;;;0.60;0.60;;;8.30;99.90;;;;;;6103971;23;20174;-84
2021/04/09 09:26:48;;;;;;;0.60;0.60;;;8.60;99.90;;;;;;6108404;23;20179;-83
2021/04/09 09:29:17;;;;;;;0.60;0.60;;;8.60;99.90;;;;;;6111086;22;20274;-84
2021/04/09 09:31:55;;;;;;;0.60;0.60;;;8.80;99.90;;;;;;6101723;23;20198;-83
2021/04/09 09:34:46;;;;;;;0.60;0.60;;;8.90;99.90;;;;;;6099489;23;20197;-83
2021/04/09 09:37:15;;;;;;;0.60;0.60;;;9.20;99.90;;;;;;6090148;23;20198;-79
2021/04/09 09:39:43;;;;;;;0.60;0.60;;;9.40;99.90;;;;;;6088481;23;20183;-82
2021/04/09 09:42:12;;;;;;;0.60;0.60;;;9.30;99.90;;;;;;6088813;23;20179;-81
2021/04/09 09:44:46;;;;;;;0.60;0.60;;;9.40;99.90;;;;;;6088932;23;20190;-79
2021/04/09 09:47:25;;;;;;;0.60;0.60;;;9.30;99.90;;;;;;6076198;23;20187;-79
2021/04/09 09:50:14;;;;;;;0.60;0.60;;;9.40;99.90;;;;;;6085661;23;20171;-80
2021/04/09 09:52:41;;;;;;;0.60;0.60;;;9.40;99.90;;;;;;6087775;23;20199;-80
2021/04/09 09:55:12;;;;;;;0.60;0.60;;;9.40;99.90;;;;;;6086385;23;20261;-80
2021/04/09 09:57:46;;;;;;;0.60;0.60;;;9.50;99.90;;;;;;6088356;23;20183;-79
2021/04/09 10:00:15;;;;;;;0.60;0.60;;;9.50;99.90;;;;;;6087827;23;20174;-79
2021/04/09 10:02:43;;;;;;;0.60;0.60;;;9.60;99.90;;;;;;6087763;23;20217;-79
2021/04/09 10:05:10;;;;;;;0.60;0.60;;;9.80;99.90;;;;;;6087881;23;20183;-87
2021/04/09 10:07:37;;;;;;;0.60;0.60;;;9.90;99.90;;;;;;6088360;23;20656;-80
2021/04/09 10:10:06;;;;;;;0.60;0.60;;;10.00;99.90;;;;;;6088520;23;20183;-85
2021/04/09 10:12:32;;;;;;;0.60;0.60;;;10.00;99.90;;;;;;6088027;23;20189;-82
2021/04/09 10:14:58;;;;;;;0.57;0.57;;;10.00;99.90;;;;;;6088438;23;20325;-80
2021/04/09 10:17:24;;;;;;;0.50;0.50;;;10.10;99.90;;;;;;6088312;23;20639;-79
2021/04/09 10:19:59;;;;;;;0.60;0.60;;;10.30;99.90;;;;;;6092229;23;20687;-86
2021/04/09 10:22:25;;;;;;;0.57;0.57;;;10.20;99.90;;;;;;6109382;23;20182;-88
2021/04/09 10:24:53;;;;;;;0.60;0.60;;;10.40;99.90;;;;;;6106265;22;20266;-89
2021/04/09 10:27:32;;;;;;;0.60;0.60;;;10.50;99.90;;;;;;5118685;27;20535;-79
2021/04/09 10:29:58;;;;;;;0.60;0.60;;;11.20;99.90;;;;;;5085995;28;20199;-80
2021/04/09 10:32:25;;;;;;;0.60;0.60;;;10.30;99.90;;;;;;5086849;28;20272;-81
2021/04/09 10:34:52;;;;;;;0.60;0.60;;;10.30;99.90;;;;;;5087643;28;20739;-82
2021/04/09 10:37:23;;;;;;;0.60;0.60;;;10.50;99.90;;;;;;5086760;28;20986;-80
2021/04/09 10:39:49;;;;;;;0.60;0.60;;;10.60;99.90;;;;;;5085789;28;20203;-82
2021/04/09 10:42:16;;;;;;;0.60;0.60;;;10.80;99.90;;;;;;5088480;28;20202;-82
2021/04/09 10:44:43;;;;;;;0.60;0.60;;;10.70;99.90;;;;;;5086617;28;20206;-82
2021/04/09 10:47:10;;;;;;;0.60;0.60;;;10.70;99.90;;;;;;5086934;28;20233;-81
2021/04/09 10:49:38;;;;;;;0.50;0.50;;;10.90;99.90;;;;;;5085058;28;20340;-82
2021/04/09 10:52:06;;;;;;;0.60;0.60;;;11.10;99.90;;;;;;5086579;28;20223;-81
2021/04/09 10:54:34;;;;;;;0.60;0.60;;;11.10;99.90;;;;;;5092993;28;20289;-80
2021/04/09 10:57:03;;;;;;;0.55;0.55;;;11.20;99.90;;;;;;5085690;28;20206;-82
2021/04/09 10:59:30;;;;;;;0.60;0.60;;;11.40;99.90;;;;;;5085817;28;20610;-82
2021/04/09 11:01:58;;;;;;;0.60;0.60;;;11.20;99.90;;;;;;5086068;28;20203;-82
2021/04/09 11:04:27;;;;;;;0.60;0.60;;;11.10;99.90;;;;;;5085979;28;20203;-82
2021/04/09 11:06:54;;;;;;;0.60;0.60;;;11.20;99.90;;;;;;5085485;28;20219;-82
2021/04/09 11:09:22;;;;;;;0.60;0.60;;;11.20;99.90;;;;;;5084725;28;20731;-82
2021/04/09 11:11:48;;;;;;;0.60;0.60;;;11.30;99.90;;;;;;5085654;28;20207;-82
2021/04/09 11:14:18;;;;;;;0.60;0.60;;;11.50;99.90;;;;;;5083380;28;20211;-82
2021/04/09 11:16:57;;;;;;;0.60;0.60;;;11.60;99.90;;;;;;5085513;28;20246;-81
2021/04/09 11:19:27;;;;;;;0.60;0.60;;;11.70;99.90;;;;;;5086385;28;20256;-82
2021/04/09 11:21:54;;;;;;;0.60;0.60;;;11.70;99.90;;;;;;5086191;28;20302;-81
2021/04/09 11:24:23;;;;;;;0.60;0.60;;;11.90;99.90;;;;;;5085450;28;20256;-82
2021/04/09 11:26:51;;;;;;;0.60;0.60;;;11.90;99.90;;;;;;5090547;28;20227;-83
2021/04/09 11:29:25;;;;;;;0.60;0.60;;;11.90;99.90;;;;;;5087789;28;20661;-81
2021/04/09 11:32:05;;;;;;;0.60;0.60;;;11.90;99.90;;;;;;5085804;28;20619;-81
2021/04/09 11:34:36;;;;;;;0.60;0.60;;;11.90;99.90;;;;;;5084328;28;20226;-81
2021/04/09 11:37:02;;;;;;;0.60;0.60;;;12.00;99.90;;;;;;5080284;28;20214;-82
2021/04/09 11:39:28;;;;;;;0.60;0.60;;;12.00;99.90;;;;;;5069846;28;20229;-82
2021/04/09 11:41:57;;;;;;;0.60;0.60;;;12.20;99.90;;;;;;5073982;28;20215;-82
2021/04/09 11:44:32;;;;;;;0.60;0.60;;;12.40;99.90;;;;;;5073839;28;20204;-82
2021/04/09 11:47:17;;;;;;;0.60;0.60;;;12.20;99.90;;;;;;5073442;28;20296;-81
2021/04/09 11:49:45;;;;;;;0.60;0.60;;;12.20;99.90;;;;;;5073538;28;20219;-81
2021/04/09 11:52:12;;;;;;;0.60;0.60;;;12.20;99.90;;;;;;5072512;28;20772;-82
2021/04/09 11:54:47;;;;;;;0.60;0.60;;;11.90;99.90;;;;;;5225779;22;20260;-84
2021/04/09 11:57:25;;;;;;;0.60;0.60;;;11.20;99.90;;;;;;5045036;28;20205;-81
2021/04/09 11:59:51;;;;;;;0.60;0.60;;;14.90;99.90;;;;;;5042671;28;20212;-83
2021/04/09 12:02:22;;;;;;;0.60;0.60;;;12.10;99.90;;;;;;5040344;28;20209;-83
2021/04/09 12:04:50;;;;;;;0.60;0.60;;;12.00;99.90;;;;;;5038348;28;20182;-83
2021/04/09 12:07:19;;;;;;;0.60;0.60;;;12.10;99.90;;;;;;5042786;28;20611;-82
2021/04/09 12:09:47;;;;;;;0.60;0.60;;;11.40;99.90;;;;;;5037224;28;20212;-81
2021/04/09 12:12:14;;;;;;;0.60;0.60;;;12.20;99.90;;;;;;5038481;28;20797;-81
2021/04/09 12:14:44;;;;;;;0.60;0.60;;;12.30;99.90;;;;;;5046776;28;20208;-84
2021/04/09 12:17:12;;;;;;;0.60;0.60;;;12.50;99.90;;;;;;5046945;28;20251;-83
2021/04/09 12:19:40;;;;;;;0.60;0.60;;;12.60;99.90;;;;;;5044470;28;20209;-82
2021/04/09 12:22:09;;;;;;;0.60;0.60;;;12.60;99.90;;;;;;5051682;28;20216;-82
2021/04/09 12:24:38;;;;;;;0.60;0.60;;;12.10;99.90;;;;;;5087770;22;20236;-85
2021/04/09 12:27:08;;;;;;;0.60;0.60;;;14.20;99.90;;;;;;5071723;28;20226;-82
2021/04/09 12:29:48;;;;;;;;;;;;;;;;;;;;;
2021/04/09 12:48:55;;;;;;;0.60;0.60;;;10.70;99.90;;;;;;5193446;22;20223;-85
2021/04/09 12:51:22;;;;;;;0.60;0.60;;;12.60;99.90;;;;;;5084779;28;20226;-88
2021/04/09 12:56:53;;;;;;;0.60;0.60;;;10.50;99.90;;;;;;5084844;28;20278;-88
2021/04/09 12:59:19;;;;;;;0.60;0.60;;;10.20;99.90;;;;;;5094681;28;20209;-88
2021/04/09 13:01:46;;;;;;;0.60;0.60;;;12.50;99.90;;;;;;5090484;28;20281;-88
2021/04/09 13:04:13;;;;;;;0.60;0.60;;;11.80;99.90;;;;;;5090798;28;20199;-87
2021/04/09 13:06:39;;;;;;;0.60;0.60;;;10.00;99.90;;;;;;5090845;28;20594;-88
2021/04/09 13:09:06;;;;;;;0.60;0.60;;;10.50;99.90;;;;;;5094413;28;20213;-87
2021/04/09 13:11:33;;;;;;;0.60;0.60;;;10.40;99.90;;;;;;5092976;28;20195;-88
2021/04/09 13:14:00;;;;;;;0.50;0.50;;;12.30;99.90;;;;;;5093811;28;20195;-88
2021/04/09 13:16:29;;;;;;;0.60;0.60;;;9.90;99.90;;;;;;5094094;28;20611;-84
2021/04/09 13:21:32;;;;;;;0.60;0.60;;;10.30;99.90;;;;;;5254975;22;20246;-87
2021/04/09 13:23:59;;;;;;;0.60;0.60;;;10.30;99.90;;;;;;5093348;28;20209;-88
2021/04/09 13:26:34;;;;;;;0.60;0.60;;;12.50;99.90;;;;;;5093760;28;20773;-86